sensor_id;sensor_type;location;lat;lon;timestamp;pressure;altitude;pressure_sealevel;temperature;humidity
36630;BME280;36256;42.154;23.002;2023-05-23T00:00:12;96963.31;;;17.56;78.45
36630;BME280;36256;42.154;23.002;2023-05-23T00:02:39;96955.25;;;17.49;78.63
36630;BME280;36256;42.154;23.002;2023-05-23T00:05:06;96963.50;;;17.47;79.07
36630;BME280;36256;42.154;23.002;2023-05-23T00:07:33;96960.09;;;17.37;81.10
36630;BME280;36256;42.154;23.002;2023-05-23T00:10:00;96965.25;;;17.33;81.94
36630;BME280;36256;42.154;23.002;2023-05-23T00:12:27;96967.56;;;17.35;82.63
36630;BME280;36256;42.154;23.002;2023-05-23T00:14:54;96964.72;;;17.35;82.93
36630;BME280;36256;42.154;23.002;2023-05-23T00:17:21;96968.78;;;17.22;83.21
36630;BME280;36256;42.154;23.002;2023-05-23T00:19:51;96966.66;;;17.12;84.08
36630;BME280;36256;42.154;23.002;2023-05-23T00:22:18;96963.78;;;17.06;86.23
36630;BME280;36256;42.154;23.002;2023-05-23T00:24:45;96966.81;;;16.97;84.76
36630;BME280;36256;42.154;23.002;2023-05-23T00:27:12;96964.72;;;16.92;83.84
36630;BME280;36256;42.154;23.002;2023-05-23T00:29:38;96969.59;;;16.92;83.52
36630;BME280;36256;42.154;23.002;2023-05-23T00:32:05;96961.84;;;16.87;82.97
36630;BME280;36256;42.154;23.002;2023-05-23T00:34:32;96974.97;;;16.84;83.37
36630;BME280;36256;42.154;23.002;2023-05-23T00:36:59;96978.22;;;16.72;84.96
36630;BME280;36256;42.154;23.002;2023-05-23T00:39:28;96965.44;;;16.56;85.96
36630;BME280;36256;42.154;23.002;2023-05-23T00:41:54;96966.38;;;16.47;87.51
36630;BME280;36256;42.154;23.002;2023-05-23T00:44:22;96982.81;;;16.43;87.08
36630;BME280;36256;42.154;23.002;2023-05-23T00:46:54;96956.13;;;16.24;85.66
36630;BME280;36256;42.154;23.002;2023-05-23T00:49:22;96984.91;;;16.17;86.70
36630;BME280;36256;42.154;23.002;2023-05-23T00:51:49;96981.00;;;16.15;88.23
36630;BME280;36256;42.154;23.002;2023-05-23T00:54:20;96978.03;;;16.04;87.84
36630;BME280;36256;42.154;23.002;2023-05-23T00:56:49;96977.22;;;15.98;87.53
36630;BME280;36256;42.154;23.002;2023-05-23T00:59:16;96978.41;;;15.91;90.64
36630;BME280;36256;42.154;23.002;2023-05-23T01:01:43;96986.56;;;15.84;89.87
36630;BME280;36256;42.154;23.002;2023-05-23T01:04:13;96975.19;;;15.78;89.24
36630;BME280;36256;42.154;23.002;2023-05-23T01:06:42;96968.97;;;15.74;89.74
36630;BME280;36256;42.154;23.002;2023-05-23T01:09:14;96965.06;;;15.71;91.24
36630;BME280;36256;42.154;23.002;2023-05-23T01:14:53;96956.94;;;15.59;91.67
36630;BME280;36256;42.154;23.002;2023-05-23T01:17:30;96957.16;;;15.55;92.47
36630;BME280;36256;42.154;23.002;2023-05-23T01:27:48;96969.84;;;15.25;92.06
36630;BME280;36256;42.154;23.002;2023-05-23T01:30:20;96965.66;;;15.21;94.18
36630;BME280;36256;42.154;23.002;2023-05-23T01:32:50;96965.66;;;15.21;94.83
36630;BME280;36256;42.154;23.002;2023-05-23T01:35:23;96962.00;;;15.15;93.04
36630;BME280;36256;42.154;23.002;2023-05-23T01:37:50;96958.09;;;15.12;92.81
36630;BME280;36256;42.154;23.002;2023-05-23T01:40:16;96957.25;;;15.06;95.46
36630;BME280;36256;42.154;23.002;2023-05-23T01:42:43;96953.28;;;14.98;95.96
36630;BME280;36256;42.154;23.002;2023-05-23T01:45:10;96950.00;;;14.85;95.22
36630;BME280;36256;42.154;23.002;2023-05-23T01:47:38;96945.16;;;14.71;96.19
36630;BME280;36256;42.154;23.002;2023-05-23T01:50:07;96949.66;;;14.63;96.65
36630;BME280;36256;42.154;23.002;2023-05-23T01:52:34;96950.34;;;14.58;95.84
36630;BME280;36256;42.154;23.002;2023-05-23T01:55:04;96949.78;;;14.54;95.70
36630;BME280;36256;42.154;23.002;2023-05-23T01:57:36;96949.28;;;14.55;94.44
36630;BME280;36256;42.154;23.002;2023-05-23T02:00:04;96959.22;;;14.51;96.52
36630;BME280;36256;42.154;23.002;2023-05-23T02:02:32;96955.22;;;14.43;96.79
36630;BME280;36256;42.154;23.002;2023-05-23T02:04:59;96942.47;;;14.18;97.42
36630;BME280;36256;42.154;23.002;2023-05-23T02:07:26;96960.41;;;14.30;96.80
36630;BME280;36256;42.154;23.002;2023-05-23T02:09:53;96960.06;;;14.28;97.24
36630;BME280;36256;42.154;23.002;2023-05-23T02:12:20;96959.97;;;14.22;98.10
36630;BME280;36256;42.154;23.002;2023-05-23T02:14:48;96962.50;;;14.20;97.55
36630;BME280;36256;42.154;23.002;2023-05-23T02:17:15;96959.09;;;14.16;97.17
36630;BME280;36256;42.154;23.002;2023-05-23T02:19:42;96966.97;;;14.12;98.38
36630;BME280;36256;42.154;23.002;2023-05-23T02:22:09;96959.19;;;14.07;98.64
36630;BME280;36256;42.154;23.002;2023-05-23T02:24:35;96962.00;;;14.07;99.64
36630;BME280;36256;42.154;23.002;2023-05-23T02:27:02;96955.28;;;14.04;98.77
36630;BME280;36256;42.154;23.002;2023-05-23T02:29:29;96967.28;;;13.99;98.52
36630;BME280;36256;42.154;23.002;2023-05-23T02:31:56;96966.19;;;13.97;99.13
36630;BME280;36256;42.154;23.002;2023-05-23T02:34:22;96953.75;;;13.89;99.12
36630;BME280;36256;42.154;23.002;2023-05-23T02:36:49;96943.88;;;13.70;100.00
36630;BME280;36256;42.154;23.002;2023-05-23T02:39:16;96961.78;;;13.81;100.00
36630;BME280;36256;42.154;23.002;2023-05-23T02:41:43;96961.47;;;13.79;100.00
36630;BME280;36256;42.154;23.002;2023-05-23T02:44:10;96952.34;;;13.70;100.00
36630;BME280;36256;42.154;23.002;2023-05-23T02:46:36;96958.53;;;13.59;100.00
36630;BME280;36256;42.154;23.002;2023-05-23T02:49:03;96963.59;;;13.55;100.00
36630;BME280;36256;42.154;23.002;2023-05-23T02:51:30;96964.53;;;13.52;100.00
36630;BME280;36256;42.154;23.002;2023-05-23T02:53:57;96962.69;;;13.49;100.00
36630;BME280;36256;42.154;23.002;2023-05-23T02:56:24;96963.00;;;13.51;100.00
36630;BME280;36256;42.154;23.002;2023-05-23T02:58:52;96961.41;;;13.50;100.00
36630;BME280;36256;42.154;23.002;2023-05-23T03:01:19;96963.28;;;13.53;100.00
36630;BME280;36256;42.154;23.002;2023-05-23T03:03:46;96950.53;;;13.43;100.00
36630;BME280;36256;42.154;23.002;2023-05-23T03:06:13;96967.50;;;13.58;100.00
36630;BME280;36256;42.154;23.002;2023-05-23T03:08:40;96968.06;;;13.62;100.00
36630;BME280;36256;42.154;23.002;2023-05-23T03:11:07;96975.84;;;13.67;100.00
36630;BME280;36256;42.154;23.002;2023-05-23T03:13:34;96969.16;;;13.64;100.00
36630;BME280;36256;42.154;23.002;2023-05-23T03:16:01;96979.34;;;13.62;100.00
36630;BME280;36256;42.154;23.002;2023-05-23T03:18:28;96967.94;;;13.56;100.00
36630;BME280;36256;42.154;23.002;2023-05-23T03:20:54;96963.34;;;13.44;100.00
36630;BME280;36256;42.154;23.002;2023-05-23T03:23:21;96958.06;;;13.37;100.00
36630;BME280;36256;42.154;23.002;2023-05-23T03:25:48;96953.75;;;13.27;100.00
36630;BME280;36256;42.154;23.002;2023-05-23T03:28:14;96959.09;;;13.25;100.00
36630;BME280;36256;42.154;23.002;2023-05-23T03:30:41;96960.38;;;13.24;100.00
36630;BME280;36256;42.154;23.002;2023-05-23T03:33:08;96955.69;;;13.21;100.00
36630;BME280;36256;42.154;23.002;2023-05-23T03:35:35;96955.03;;;13.26;100.00
36630;BME280;36256;42.154;23.002;2023-05-23T03:38:01;96960.97;;;13.28;100.00
36630;BME280;36256;42.154;23.002;2023-05-23T03:40:28;96968.75;;;13.33;100.00
36630;BME280;36256;42.154;23.002;2023-05-23T03:43:05;96957.25;;;13.22;100.00
36630;BME280;36256;42.154;23.002;2023-05-23T03:45:32;96968.63;;;13.27;100.00
36630;BME280;36256;42.154;23.002;2023-05-23T03:47:59;96973.78;;;13.29;100.00
36630;BME280;36256;42.154;23.002;2023-05-23T03:50:26;96951.97;;;13.15;100.00
36630;BME280;36256;42.154;23.002;2023-05-23T03:52:53;96970.19;;;13.28;100.00
36630;BME280;36256;42.154;23.002;2023-05-23T03:55:20;96963.66;;;13.22;100.00
36630;BME280;36256;42.154;23.002;2023-05-23T03:57:48;96952.38;;;13.22;100.00
36630;BME280;36256;42.154;23.002;2023-05-23T04:00:16;96965.47;;;13.34;100.00
36630;BME280;36256;42.154;23.002;2023-05-23T04:02:44;96965.56;;;13.40;100.00
36630;BME280;36256;42.154;23.002;2023-05-23T04:05:12;96976.06;;;13.39;100.00
36630;BME280;36256;42.154;23.002;2023-05-23T04:07:39;96961.91;;;13.49;100.00
36630;BME280;36256;42.154;23.002;2023-05-23T04:10:07;96978.22;;;13.68;100.00
36630;BME280;36256;42.154;23.002;2023-05-23T04:12:35;96978.22;;;13.68;100.00
36630;BME280;36256;42.154;23.002;2023-05-23T04:15:02;96969.06;;;13.73;100.00
36630;BME280;36256;42.154;23.002;2023-05-23T04:17:29;96979.78;;;13.84;100.00
36630;BME280;36256;42.154;23.002;2023-05-23T04:19:57;96976.56;;;13.76;100.00
36630;BME280;36256;42.154;23.002;2023-05-23T04:22:24;96980.97;;;13.92;100.00
36630;BME280;36256;42.154;23.002;2023-05-23T04:24:50;96976.22;;;13.98;100.00
36630;BME280;36256;42.154;23.002;2023-05-23T04:27:17;96990.50;;;14.09;100.00
36630;BME280;36256;42.154;23.002;2023-05-23T04:29:44;96994.72;;;14.13;100.00
36630;BME280;36256;42.154;23.002;2023-05-23T04:32:12;96998.13;;;14.17;100.00
36630;BME280;36256;42.154;23.002;2023-05-23T04:34:40;96998.91;;;14.18;100.00
36630;BME280;36256;42.154;23.002;2023-05-23T04:37:07;96997.75;;;14.25;100.00
36630;BME280;36256;42.154;23.002;2023-05-23T04:39:35;96996.31;;;14.29;100.00
36630;BME280;36256;42.154;23.002;2023-05-23T04:42:01;96988.94;;;14.32;100.00
36630;BME280;36256;42.154;23.002;2023-05-23T04:44:28;96990.75;;;14.35;100.00
36630;BME280;36256;42.154;23.002;2023-05-23T04:46:55;96998.69;;;14.22;100.00
36630;BME280;36256;42.154;23.002;2023-05-23T04:49:22;96991.09;;;14.28;100.00
36630;BME280;36256;42.154;23.002;2023-05-23T04:51:49;96996.03;;;14.42;100.00
36630;BME280;36256;42.154;23.002;2023-05-23T04:54:16;96992.13;;;14.54;100.00
36630;BME280;36256;42.154;23.002;2023-05-23T04:56:43;96998.47;;;14.63;100.00
36630;BME280;36256;42.154;23.002;2023-05-23T04:59:10;96992.31;;;14.65;100.00
36630;BME280;36256;42.154;23.002;2023-05-23T05:01:38;97000.56;;;14.68;100.00
36630;BME280;36256;42.154;23.002;2023-05-23T05:04:06;96993.06;;;14.80;100.00
36630;BME280;36256;42.154;23.002;2023-05-23T05:06:33;96997.72;;;14.83;100.00
36630;BME280;36256;42.154;23.002;2023-05-23T05:09:00;96997.25;;;14.84;100.00
36630;BME280;36256;42.154;23.002;2023-05-23T05:11:26;96992.66;;;14.87;100.00
36630;BME280;36256;42.154;23.002;2023-05-23T05:13:54;96982.59;;;15.01;100.00
36630;BME280;36256;42.154;23.002;2023-05-23T05:16:20;96988.44;;;15.12;100.00
36630;BME280;36256;42.154;23.002;2023-05-23T05:18:47;96991.03;;;15.15;100.00
36630;BME280;36256;42.154;23.002;2023-05-23T05:21:14;96980.06;;;15.23;100.00
36630;BME280;36256;42.154;23.002;2023-05-23T05:23:41;96991.84;;;15.36;98.82
36630;BME280;36256;42.154;23.002;2023-05-23T05:26:09;96987.22;;;15.53;97.66
36630;BME280;36256;42.154;23.002;2023-05-23T05:28:35;96990.69;;;15.62;96.24
36630;BME280;36256;42.154;23.002;2023-05-23T05:31:03;96993.91;;;15.76;94.77
36630;BME280;36256;42.154;23.002;2023-05-23T05:33:30;96987.97;;;15.94;93.90
36630;BME280;36256;42.154;23.002;2023-05-23T05:36:02;96991.31;;;16.18;93.66
36630;BME280;36256;42.154;23.002;2023-05-23T05:38:29;96990.56;;;16.43;89.01
36630;BME280;36256;42.154;23.002;2023-05-23T05:40:56;96980.19;;;16.91;85.76
36630;BME280;36256;42.154;23.002;2023-05-23T05:43:24;96993.28;;;17.68;83.41
36630;BME280;36256;42.154;23.002;2023-05-23T05:45:51;96991.47;;;18.35;79.83
36630;BME280;36256;42.154;23.002;2023-05-23T05:48:18;96991.78;;;19.09;77.03
36630;BME280;36256;42.154;23.002;2023-05-23T05:50:44;96981.09;;;19.70;74.02
36630;BME280;36256;42.154;23.002;2023-05-23T05:53:12;96969.19;;;19.66;69.30
36630;BME280;36256;42.154;23.002;2023-05-23T05:55:39;96970.41;;;20.39;69.01
36630;BME280;36256;42.154;23.002;2023-05-23T05:58:06;96963.44;;;21.05;64.78
36630;BME280;36256;42.154;23.002;2023-05-23T06:00:33;96956.00;;;21.26;62.23
36630;BME280;36256;42.154;23.002;2023-05-23T06:03:07;96946.34;;;20.99;61.74
36630;BME280;36256;42.154;23.002;2023-05-23T06:05:35;96952.41;;;21.20;60.25
36630;BME280;36256;42.154;23.002;2023-05-23T06:08:03;96947.53;;;21.63;61.13
36630;BME280;36256;42.154;23.002;2023-05-23T06:10:30;96946.09;;;21.27;59.22
36630;BME280;36256;42.154;23.002;2023-05-23T06:12:57;96946.63;;;21.98;58.59
36630;BME280;36256;42.154;23.002;2023-05-23T06:15:25;96932.41;;;22.30;57.59
36630;BME280;36256;42.154;23.002;2023-05-23T06:17:52;96942.84;;;22.09;57.13
36630;BME280;36256;42.154;23.002;2023-05-23T06:20:18;96943.72;;;22.54;56.25
36630;BME280;36256;42.154;23.002;2023-05-23T06:22:45;96933.47;;;22.64;52.65
36630;BME280;36256;42.154;23.002;2023-05-23T06:25:12;96928.66;;;23.17;55.21
36630;BME280;36256;42.154;23.002;2023-05-23T06:27:39;96918.38;;;23.40;53.80
36630;BME280;36256;42.154;23.002;2023-05-23T06:30:06;96921.59;;;23.76;52.50
36630;BME280;36256;42.154;23.002;2023-05-23T06:32:33;96918.25;;;24.11;51.75
36630;BME280;36256;42.154;23.002;2023-05-23T06:35:00;96923.75;;;24.22;51.75
36630;BME280;36256;42.154;23.002;2023-05-23T06:37:26;96926.72;;;24.16;51.10
36630;BME280;36256;42.154;23.002;2023-05-23T06:39:53;96917.28;;;24.63;51.02
36630;BME280;36256;42.154;23.002;2023-05-23T06:42:20;96919.25;;;25.02;50.13
36630;BME280;36256;42.154;23.002;2023-05-23T06:44:46;96918.03;;;25.18;50.07
36630;BME280;36256;42.154;23.002;2023-05-23T06:47:13;96898.00;;;25.25;49.21
36630;BME280;36256;42.154;23.002;2023-05-23T06:49:40;96907.47;;;25.41;48.27
36630;BME280;36256;42.154;23.002;2023-05-23T06:52:06;96897.22;;;25.25;46.48
36630;BME280;36256;42.154;23.002;2023-05-23T06:54:33;96893.66;;;25.11;46.79
36630;BME280;36256;42.154;23.002;2023-05-23T06:57:00;96902.53;;;25.69;49.76
36630;BME280;36256;42.154;23.002;2023-05-23T06:59:26;96890.34;;;25.84;48.78
36630;BME280;36256;42.154;23.002;2023-05-23T07:01:53;96890.03;;;25.95;45.59
36630;BME280;36256;42.154;23.002;2023-05-23T07:04:20;96890.34;;;25.84;45.88
36630;BME280;36256;42.154;23.002;2023-05-23T07:06:47;96883.72;;;25.97;47.15
36630;BME280;36256;42.154;23.002;2023-05-23T07:09:13;96875.34;;;25.70;45.38
36630;BME280;36256;42.154;23.002;2023-05-23T07:11:40;96881.81;;;25.99;45.68
36630;BME280;36256;42.154;23.002;2023-05-23T07:14:07;96884.88;;;26.44;47.27
36630;BME280;36256;42.154;23.002;2023-05-23T07:16:34;96874.72;;;26.00;46.58
36630;BME280;36256;42.154;23.002;2023-05-23T07:19:01;96868.88;;;25.85;47.22
36630;BME280;36256;42.154;23.002;2023-05-23T07:21:28;96875.31;;;26.06;47.25
36630;BME280;36256;42.154;23.002;2023-05-23T07:23:55;96862.03;;;25.96;45.30
36630;BME280;36256;42.154;23.002;2023-05-23T07:26:22;96866.06;;;25.57;45.50
36630;BME280;36256;42.154;23.002;2023-05-23T07:28:49;96840.00;;;25.27;49.47
36630;BME280;36256;42.154;23.002;2023-05-23T07:31:16;96859.53;;;25.49;49.72
36630;BME280;36256;42.154;23.002;2023-05-23T07:33:43;96866.72;;;25.70;48.01
36630;BME280;36256;42.154;23.002;2023-05-23T07:36:10;96858.56;;;25.26;48.28
36630;BME280;36256;42.154;23.002;2023-05-23T07:38:37;96862.88;;;24.91;49.73
36630;BME280;36256;42.154;23.002;2023-05-23T07:41:03;96860.69;;;24.63;52.47
36630;BME280;36256;42.154;23.002;2023-05-23T07:43:37;96865.06;;;24.77;50.44
36630;BME280;36256;42.154;23.002;2023-05-23T07:46:04;96864.56;;;24.86;51.97
36630;BME280;36256;42.154;23.002;2023-05-23T07:48:31;96870.66;;;24.62;51.12
36630;BME280;36256;42.154;23.002;2023-05-23T07:50:57;96861.03;;;24.39;50.86
36630;BME280;36256;42.154;23.002;2023-05-23T07:53:24;96858.72;;;24.58;50.54
36630;BME280;36256;42.154;23.002;2023-05-23T07:55:51;96849.56;;;24.39;52.37
36630;BME280;36256;42.154;23.002;2023-05-23T07:58:18;96847.50;;;24.60;52.43
36630;BME280;36256;42.154;23.002;2023-05-23T08:00:45;96864.75;;;24.47;56.21
36630;BME280;36256;42.154;23.002;2023-05-23T08:03:11;96854.34;;;24.57;55.42
36630;BME280;36256;42.154;23.002;2023-05-23T08:05:38;96848.81;;;24.59;51.60
36630;BME280;36256;42.154;23.002;2023-05-23T08:08:05;96856.38;;;24.90;52.40
36630;BME280;36256;42.154;23.002;2023-05-23T08:10:32;96844.19;;;24.98;50.00
36630;BME280;36256;42.154;23.002;2023-05-23T08:12:59;96829.13;;;24.63;46.79
36630;BME280;36256;42.154;23.002;2023-05-23T08:15:26;96815.16;;;24.60;47.47
36630;BME280;36256;42.154;23.002;2023-05-23T08:17:54;96827.25;;;24.86;49.02
36630;BME280;36256;42.154;23.002;2023-05-23T08:20:23;96820.28;;;24.54;46.45
36630;BME280;36256;42.154;23.002;2023-05-23T08:23:00;96826.28;;;24.63;48.00
36630;BME280;36256;42.154;23.002;2023-05-23T08:25:27;96820.28;;;24.74;43.82
36630;BME280;36256;42.154;23.002;2023-05-23T08:27:58;96809.34;;;24.93;45.75
36630;BME280;36256;42.154;23.002;2023-05-23T08:30:27;96805.13;;;24.94;44.50
36630;BME280;36256;42.154;23.002;2023-05-23T08:32:55;96802.72;;;25.06;44.79
36630;BME280;36256;42.154;23.002;2023-05-23T08:35:22;96794.97;;;25.22;42.28
36630;BME280;36256;42.154;23.002;2023-05-23T08:37:49;96788.22;;;25.12;40.48
36630;BME280;36256;42.154;23.002;2023-05-23T08:40:20;96779.50;;;24.97;42.50
36630;BME280;36256;42.154;23.002;2023-05-23T08:42:48;96786.09;;;25.05;44.17
36630;BME280;36256;42.154;23.002;2023-05-23T08:45:17;96764.53;;;25.19;38.69
36630;BME280;36256;42.154;23.002;2023-05-23T08:47:45;96769.69;;;25.20;43.80
36630;BME280;36256;42.154;23.002;2023-05-23T08:50:14;96769.66;;;25.13;43.87
36630;BME280;36256;42.154;23.002;2023-05-23T08:52:49;96781.97;;;25.21;42.68
36630;BME280;36256;42.154;23.002;2023-05-23T08:55:19;96777.81;;;25.37;42.41
36630;BME280;36256;42.154;23.002;2023-05-23T08:57:46;96768.72;;;25.46;39.83
36630;BME280;36256;42.154;23.002;2023-05-23T09:00:14;96761.84;;;25.49;42.66
36630;BME280;36256;42.154;23.002;2023-05-23T09:02:42;96760.31;;;25.48;41.98
36630;BME280;36256;42.154;23.002;2023-05-23T09:05:09;96765.66;;;25.44;41.72
36630;BME280;36256;42.154;23.002;2023-05-23T09:07:37;96766.13;;;25.63;41.18
36630;BME280;36256;42.154;23.002;2023-05-23T09:10:06;96770.69;;;25.58;42.19
36630;BME280;36256;42.154;23.002;2023-05-23T09:12:34;96762.25;;;25.53;42.96
36630;BME280;36256;42.154;23.002;2023-05-23T09:15:05;96778.22;;;25.69;42.23
36630;BME280;36256;42.154;23.002;2023-05-23T09:17:32;96769.25;;;25.80;41.30
36630;BME280;36256;42.154;23.002;2023-05-23T09:19:59;96756.97;;;25.72;41.63
36630;BME280;36256;42.154;23.002;2023-05-23T09:22:27;96787.28;;;25.81;36.98
36630;BME280;36256;42.154;23.002;2023-05-23T09:24:54;96788.78;;;25.74;37.61
36630;BME280;36256;42.154;23.002;2023-05-23T09:27:22;96778.25;;;25.77;41.17
36630;BME280;36256;42.154;23.002;2023-05-23T09:29:49;96784.59;;;25.90;41.64
36630;BME280;36256;42.154;23.002;2023-05-23T09:32:17;96791.72;;;26.04;37.53
36630;BME280;36256;42.154;23.002;2023-05-23T09:34:58;96794.28;;;26.15;36.90
36630;BME280;36256;42.154;23.002;2023-05-23T09:37:33;96790.28;;;26.18;41.39
36630;BME280;36256;42.154;23.002;2023-05-23T09:40:02;96790.09;;;26.24;39.99
36630;BME280;36256;42.154;23.002;2023-05-23T09:42:32;96787.19;;;26.09;36.17
36630;BME280;36256;42.154;23.002;2023-05-23T09:44:59;96794.97;;;26.01;38.20
36630;BME280;36256;42.154;23.002;2023-05-23T09:47:30;96787.78;;;26.22;38.63
36630;BME280;36256;42.154;23.002;2023-05-23T09:49:57;96788.19;;;26.26;38.74
36630;BME280;36256;42.154;23.002;2023-05-23T09:52:24;96779.19;;;26.37;37.16
36630;BME280;36256;42.154;23.002;2023-05-23T09:54:51;96792.44;;;26.48;39.56
36630;BME280;36256;42.154;23.002;2023-05-23T09:57:18;96782.25;;;26.39;33.69
36630;BME280;36256;42.154;23.002;2023-05-23T09:59:57;96750.75;;;26.11;33.77
36630;BME280;36256;42.154;23.002;2023-05-23T10:05:46;96781.84;;;26.20;35.17
36630;BME280;36256;42.154;23.002;2023-05-23T10:13:26;96762.50;;;26.43;35.61
36630;BME280;36256;42.154;23.002;2023-05-23T10:16:05;96777.09;;;26.45;37.16
36630;BME280;36256;42.154;23.002;2023-05-23T10:18:38;96765.97;;;26.50;36.84
36630;BME280;36256;42.154;23.002;2023-05-23T10:21:10;96780.94;;;26.56;38.05
36630;BME280;36256;42.154;23.002;2023-05-23T10:23:38;96773.22;;;26.51;34.38
36630;BME280;36256;42.154;23.002;2023-05-23T10:26:04;96774.78;;;26.52;35.85
36630;BME280;36256;42.154;23.002;2023-05-23T10:28:31;96777.84;;;26.54;34.71
36630;BME280;36256;42.154;23.002;2023-05-23T10:30:58;96769.44;;;26.63;35.37
36630;BME280;36256;42.154;23.002;2023-05-23T10:33:25;96786.31;;;26.74;40.50
36630;BME280;36256;42.154;23.002;2023-05-23T10:36:08;96765.63;;;26.76;34.71
36630;BME280;36256;42.154;23.002;2023-05-23T10:38:40;96769.78;;;26.60;37.72
36630;BME280;36256;42.154;23.002;2023-05-23T10:41:16;96763.69;;;26.78;34.68
36630;BME280;36256;42.154;23.002;2023-05-23T10:46:53;96764.06;;;27.05;36.58
36630;BME280;36256;42.154;23.002;2023-05-23T10:49:20;96773.25;;;27.11;33.34
36630;BME280;36256;42.154;23.002;2023-05-23T10:51:49;96750.47;;;26.75;31.19
36630;BME280;36256;42.154;23.002;2023-05-23T10:54:18;96756.00;;;26.96;33.52
36630;BME280;36256;42.154;23.002;2023-05-23T10:57:04;96747.38;;;26.81;32.20
36630;BME280;36256;42.154;23.002;2023-05-23T10:59:31;96774.59;;;27.02;38.11
36630;BME280;36256;42.154;23.002;2023-05-23T11:01:59;96757.13;;;26.70;31.64
36630;BME280;36256;42.154;23.002;2023-05-23T11:04:28;96756.34;;;26.70;38.61
36630;BME280;36256;42.154;23.002;2023-05-23T11:06:55;96762.91;;;26.93;37.63
36630;BME280;36256;42.154;23.002;2023-05-23T11:09:22;96751.97;;;26.99;35.63
36630;BME280;36256;42.154;23.002;2023-05-23T11:16:57;96754.81;;;27.06;34.75
36630;BME280;36256;42.154;23.002;2023-05-23T11:19:27;96737.00;;;27.00;33.72
36630;BME280;36256;42.154;23.002;2023-05-23T11:21:59;96754.06;;;26.98;36.14
36630;BME280;36256;42.154;23.002;2023-05-23T11:24:46;96755.59;;;27.07;40.05
36630;BME280;36256;42.154;23.002;2023-05-23T11:27:14;96755.56;;;27.14;34.21
36630;BME280;36256;42.154;23.002;2023-05-23T11:29:41;96739.47;;;27.04;39.08
36630;BME280;36256;42.154;23.002;2023-05-23T11:32:12;96743.31;;;27.06;38.16
36630;BME280;36256;42.154;23.002;2023-05-23T11:34:43;96751.53;;;27.17;37.42
36630;BME280;36256;42.154;23.002;2023-05-23T11:37:10;96743.28;;;27.14;34.73
36630;BME280;36256;42.154;23.002;2023-05-23T11:39:37;96732.97;;;26.96;30.89
36630;BME280;36256;42.154;23.002;2023-05-23T11:42:04;96726.25;;;26.86;30.61
36630;BME280;36256;42.154;23.002;2023-05-23T11:44:31;96718.22;;;26.84;33.84
36630;BME280;36256;42.154;23.002;2023-05-23T11:47:01;96722.22;;;26.89;32.28
36630;BME280;36256;42.154;23.002;2023-05-23T11:49:34;96741.78;;;26.98;35.53
36630;BME280;36256;42.154;23.002;2023-05-23T11:52:02;96719.94;;;26.80;29.13
36630;BME280;36256;42.154;23.002;2023-05-23T11:54:29;96708.81;;;26.84;30.24
36630;BME280;36256;42.154;23.002;2023-05-23T11:56:56;96720.66;;;27.03;33.66
36630;BME280;36256;42.154;23.002;2023-05-23T11:59:24;96721.81;;;27.07;30.60
36630;BME280;36256;42.154;23.002;2023-05-23T12:01:52;96708.97;;;26.93;30.52
36630;BME280;36256;42.154;23.002;2023-05-23T12:04:19;96706.50;;;26.90;31.15
36630;BME280;36256;42.154;23.002;2023-05-23T12:06:47;96698.81;;;26.85;29.88
36630;BME280;36256;42.154;23.002;2023-05-23T12:09:15;96715.69;;;26.96;30.00
36630;BME280;36256;42.154;23.002;2023-05-23T12:11:42;96735.63;;;27.09;33.27
36630;BME280;36256;42.154;23.002;2023-05-23T12:14:14;96734.25;;;27.10;35.60
36630;BME280;36256;42.154;23.002;2023-05-23T12:16:45;96729.50;;;27.05;31.88
36630;BME280;36256;42.154;23.002;2023-05-23T12:19:13;96721.41;;;27.11;30.57
36630;BME280;36256;42.154;23.002;2023-05-23T12:21:47;96723.69;;;27.20;33.25
36630;BME280;36256;42.154;23.002;2023-05-23T12:24:21;96727.13;;;27.26;34.11
36630;BME280;36256;42.154;23.002;2023-05-23T12:29:21;96712.78;;;27.03;29.24
36630;BME280;36256;42.154;23.002;2023-05-23T12:31:53;96697.44;;;26.93;31.39
36630;BME280;36256;42.154;23.002;2023-05-23T12:34:20;96700.31;;;27.01;36.67
36630;BME280;36256;42.154;23.002;2023-05-23T12:36:47;96697.63;;;26.95;32.96
36630;BME280;36256;42.154;23.002;2023-05-23T12:39:29;96703.03;;;26.99;32.60
36630;BME280;36256;42.154;23.002;2023-05-23T12:42:06;96699.78;;;26.95;32.88
36630;BME280;36256;42.154;23.002;2023-05-23T12:44:34;96685.72;;;27.06;30.31
36630;BME280;36256;42.154;23.002;2023-05-23T12:47:02;96686.84;;;27.11;33.68
36630;BME280;36256;42.154;23.002;2023-05-23T12:49:29;96683.78;;;27.09;29.83
36630;BME280;36256;42.154;23.002;2023-05-23T12:51:56;96683.56;;;27.14;29.09
36630;BME280;36256;42.154;23.002;2023-05-23T12:54:23;96688.38;;;27.19;33.57
36630;BME280;36256;42.154;23.002;2023-05-23T12:56:49;96675.34;;;27.03;29.19
36630;BME280;36256;42.154;23.002;2023-05-23T12:59:16;96686.47;;;27.07;28.69
36630;BME280;36256;42.154;23.002;2023-05-23T13:01:43;96671.53;;;27.01;29.05
36630;BME280;36256;42.154;23.002;2023-05-23T13:04:10;96672.28;;;27.09;30.16
36630;BME280;36256;42.154;23.002;2023-05-23T13:06:37;96664.19;;;27.15;29.75
36630;BME280;36256;42.154;23.002;2023-05-23T13:09:03;96667.03;;;27.22;28.39
36630;BME280;36256;42.154;23.002;2023-05-23T13:11:30;96672.94;;;27.32;30.20
36630;BME280;36256;42.154;23.002;2023-05-23T13:13:57;96672.97;;;27.24;32.52
36630;BME280;36256;42.154;23.002;2023-05-23T13:16:24;96663.09;;;27.03;28.39
36630;BME280;36256;42.154;23.002;2023-05-23T13:18:51;96667.31;;;26.94;29.47
36630;BME280;36256;42.154;23.002;2023-05-23T13:21:18;96670.75;;;26.93;31.47